Welcome to our Virtual Airline
Sign-in:

Flight MFC36961

  • Submitted By: Karl-Heinz Klotz
  • Departure Airport: Port Lions (ORI)
  • Arrival Airport: Port Williams SPB (KPR)
  • Aircraft: BELL 412EP (N4122MM)
  • Flight Time: 00.30.56
  • Date Submitted: 19/05/13
  • Route: NO STOPS
  • Status: Accepted
Flight Details
Gross Revenue:
(3 load / $ 61.00 per unit
$ 183.00
Fuel Cost:
(28.5763 fuel used @ 5.1 / unit)
$ 145.74

Additional Log Information:

View Log

FS[15:06] ----- Flight Opened -----
FS[15:06] Cigar Box - 1.1.4.0
FS[15:06] FS: Prepar3D V4
FS[15:06] FSUIPC: v5,15
FS[15:06] Flight Number: MFC36961
FS[15:06] FS Aircraft: C185F SKYWAGON AMPHIBIAN
FS[15:06] FS Model: C185
FS[15:06] FS Type: Cessna
FS[15:06] Departure: ORI
FS[15:06] Arrival: KPR
FS[15:06] Flight Level: 3500
FS[15:06] Flight Type: H
FS[15:06] Passengers: 3
FS[15:06] FOB: 197 lbs
FS[15:06] Gate: n/a
FS[15:06] NOTE: Parking Brake Ignored
FS[15:06] Crash Detection: Disabled
FS[15:06] Engines: 1 Piston
FS[15:06] NOTE: Boarding has started
FS[15:06] Engine 1: Started
FS[15:06] Light Data: Navigation ON
FS[15:06] Light Data: Beacon ON
FS[15:06] Light Data: Strobe lights ON
FS[15:06] Main Door Closed
FS[15:06] COM1: 121.05
FS[15:06] COM2: 127.80
FS[15:06] Transponder: 1200
FS[15:06] NAV1: 115.90
FS[15:06] NAV2: 110.60
FS[15:06] ADF1: 396.0
FS[15:06] ADF2: 240.0
FS[15:06] Navigation Mode: NAV
FS[15:06] NOTE: Taxi started
FS[15:06] NOTE: ----- TAKE OFF -----
FS[15:06] GS: 33 knots
FS[15:06] TAS: 34 knots
FS[15:06] IAS: 34 knots
FS[15:06] VS: 1 fpm
FS[15:06] FOB: 197 lbs
FS[15:06] Heading: 265°
FS[15:06] Pitch: 1°
FS[15:06] Bank: 0°
FS[15:06] Aircraft Weight: 2642,19 lbs
FS[15:06] Nearest Airport: ORI
FS[15:06] Distance: 0,06 miles
FS[15:06] Runway: ???
FS[15:06] Ground Surface: Gravel
FS[15:06] Ground Condition: Normal
FS[15:06] NOTE: Weather Report
FS[15:06] Wind Heading: 345°
FS[15:06] Wind Speed: 0 knots
FS[15:06] OAT: 14° C
FS[15:06] TAT: 15° C
FS[15:06] Precipitation: None
FS[15:06] Dew Point: 4° C
FS[15:06] Visibility: 62 miles
FS[15:06] METAR: No METAR available for ORI.
FS[15:06] NOTE: Climb started
FS[15:06] Flaps: Position 1
FS[15:06] GS: 71 knots
FS[15:06] TAS: 73 knots
FS[15:06] IAS: 73 knots
FS[15:06] VS: 815 fpm
FS[15:06] Flaps: Position 0
FS[15:06] GS: 77 knots
FS[15:06] TAS: 79 knots
FS[15:06] IAS: 79 knots
FS[15:06] VS: 672 fpm
FS[15:07] View Mode: Virtual Cockpit
FS[15:07] Autopilot: Engaged
FS[15:07] AGL: 1049 ft
FS[15:07] AMSL: 1049 ft
FS[15:08] Landing Gear: Retracted
FS[15:08] GS: 126 knots
FS[15:08] TAS: 128 knots
FS[15:08] IAS: 126 knots
FS[15:08] VS: 39 fpm
FS[15:08] AGL: 1083 ft
FS[15:08] AMSL: 1102 ft
FS[15:08] Recovery: Flight Saved
FS[15:09] Recovery: Flight Saved
FS[15:10] Recovery: Flight Saved
FS[15:11] Recovery: Flight Saved
FS[15:12] Recovery: Flight Saved
FS[15:12] FS: Paused
FS[15:12] FS: Unpaused
FS[15:12] Recovery: Flight Saved
FS[15:13] Recovery: Flight Saved
FS[15:15] Recovery: Flight Saved
FS[15:16] Recovery: Flight Saved
FS[15:19] Recovery: Flight Saved
FS[15:20] Recovery: Flight Saved
FS[15:21] Recovery: Flight Saved
FS[15:25] Recovery: Flight Saved
FS[15:26] Recovery: Flight Saved
FS[15:27] Recovery: Flight Saved
FS[15:28] Recovery: Flight Saved
FS[15:29] Recovery: Flight Saved
FS[15:30] Recovery: Flight Saved
FS[15:31] Recovery: Flight Saved
FS[15:32] Recovery: Flight Saved
FS[15:32] Recovery: Flight Saved
FS[15:33] Flaps: Position 1
FS[15:33] GS: 93 knots
FS[15:33] TAS: 94 knots
FS[15:33] IAS: 93 knots
FS[15:33] VS: -214 fpm
FS[15:33] Recovery: Flight Saved
FS[15:34] Flaps: Position 2
FS[15:34] GS: 73 knots
FS[15:34] TAS: 75 knots
FS[15:34] IAS: 75 knots
FS[15:34] VS: -999 fpm
FS[15:34] Flaps: Position 3
FS[15:34] GS: 64 knots
FS[15:34] TAS: 65 knots
FS[15:34] IAS: 65 knots
FS[15:34] VS: -439 fpm
FS[15:34] Flaps: Position 4
FS[15:34] GS: 62 knots
FS[15:34] TAS: 62 knots
FS[15:34] IAS: 62 knots
FS[15:34] VS: -72 fpm
FS[15:36] NOTE: ----- LANDED -----
FS[15:36] Landing Rate: -7,69 fpm
FS[15:36] GS: 56 knots
FS[15:36] TAS: 57 knots
FS[15:36] IAS: 57 knots
FS[15:36] VS: -7 fpm
FS[15:36] FOB: 134 lbs
FS[15:36] Heading: 79°
FS[15:36] Pitch: 1°
FS[15:36] Bank: -1°
FS[15:36] Aircraft Weight: 2579,02 lbs
FS[15:36] Nearest Airport: KPR
FS[15:36] Distance: 1,03 miles
FS[15:36] Runway: ???
FS[15:36] Ground Surface: Water
FS[15:36] Ground Condition: Normal
FS[15:36] NOTE: Weather Report
FS[15:36] Wind Heading: 345°
FS[15:36] Wind Speed: 0 knots
FS[15:36] OAT: 14° C
FS[15:36] TAT: 15° C
FS[15:36] Precipitation: None
FS[15:36] Dew Point: 4° C
FS[15:36] Visibility: 62 miles
FS[15:36] METAR: KPRB 130953Z AUTO 28005KT 10SM CLR 11/09 A3000 RMK AO2 SLP151 T01060094KPRC 130953Z AUTO 00000KT 10SM CLR 08/06 A3007 RMK AO2 SLP131 T00830056KPRG 131015Z AUTO 29004KT 7SM BKN043 07/06 A2988 RMK AO2 T00650057KPRN 130956Z AUTO 34006KT 10SM FEW075 19/17 A2986 RMK AO2 SLP105 T01890167KPRO 131015Z AUTO 00000KT 1/4SM FG OVC002 02/02 A2996 RMK AO2 T00170017KPRS 131015Z AUTO 34006KT 10SM OVC044 20/12 A2994 RMK AO2 LTG DSNT NE AND NW T01970116KPRX 130956Z AUTO 00000KT 10SM CLR 13/12 A2992 RMK AO2 SLP144 T01280117
FS[15:36] View Mode: Virtual Cockpit
FS[15:36] NOTE: Taxi started
FS[15:37] Flaps: Position 3
FS[15:37] Flaps: Position 2
FS[15:37] Flaps: Position 1
FS[15:37] Flaps: Position 0
FS[15:37] Gate: n/a
FS[15:37] NOTE: Flight Completed
FS[15:37] FS Aircraft: C185F SKYWAGON AMPHIBIAN
FS[15:37] FS Model: C185
FS[15:37] FS Type: Cessna
FS[15:37] FOB: 134 lbs
FS[15:37] Fuel Used: 63 lbs
FS[15:37] Flight Time: 00:30:56
FS[15:37] Flight Time (Dawn): 00:00:00
FS[15:37] Flight Time (Day): 00:30:56
FS[15:37] Flight Time (Dusk): 00:00:00
FS[15:37] Flight Time (Night): 00:00:00
FS[15:37] Total Landings: 1
FS[15:37] MaxSim Rate: 0x
FS[15:37] Cigar Box - 1.1.4.0
FS[15:37] ----- Flight Closed -----

Route Map